Decoded Metar for LFJL (METZ in FRANCE) (IATA:ETZ) | Meteo·Mobile Aviation Weather
aviador You're here:

LFJL Decoded Metar

METZ in FRANCE
Report Time2018-10-18 15:30:00
UTC Time2018-10-18 16:06:15
Flight Rules vfr VFR
Wind010° at 13 kt
W.Decomp.*RWY 04: 11.3 kt HW 6.5 kt LCW
W.Rank010° ranks 27
Current wind is above 010° avg. (5.0)
Visibility9999 m
Phenomena:N/A
Clouds:N/A
Expected CloudBase > 3,200 ft AGL from Temp-Dew spread
CeilingNone
Temp20°C (ISA +7)
Dew Point12°C (60% RH)
AAT15.9°C
QNH1019 hPa
Density Alt1,640 ft
Elevation866 ft
Report Wrong Elevation
Raw Report
LFJL 181530Z AUTO 01013KT CAVOK 20/12 Q1019 NOSIG=

Extra information for LFJL:More info

Metar Taf Metar & Taf Last 4 Metars F.Rules Stats Wind Profile Meteogram Temp Stats Airport Information Weather charts Add Link Nearby VenuesMetar ALERT Operation Metar Decoded Social comments